Time;durP1;ratioP1;P1;durP2;ratioP2;P2;SDS_P1;SDS_P2;PMS_P1;PMS_P2;Temp;Humidity;BMP_temperature;BMP_pressure;BME280_temperature;BME280_humidity;BME280_pressure;Samples;Min_cycle;Max_cycle;Signal;HPM_P1;HPM_P2
2021/12/09 00:01:27;;;;;;;82.90;35.17;;;2.40;99.90;;;;;;5011036;28;20072;-54
2021/12/09 00:03:56;;;;;;;85.82;35.05;;;2.50;99.90;;;;;;5009238;28;20092;-54
2021/12/09 00:06:26;;;;;;;82.75;33.55;;;2.50;99.90;;;;;;5010248;28;20720;-54
2021/12/09 00:08:54;;;;;;;78.80;34.00;;;2.50;99.90;;;;;;5010699;28;20050;-55
2021/12/09 00:11:20;;;;;;;81.55;34.78;;;2.50;99.90;;;;;;5005962;28;20038;-57
2021/12/09 00:13:47;;;;;;;77.13;32.70;;;2.50;99.90;;;;;;5001297;28;20038;-55
2021/12/09 00:16:12;;;;;;;87.10;35.40;;;2.50;99.90;;;;;;5002379;28;20022;-52
2021/12/09 00:18:38;;;;;;;84.32;34.47;;;2.50;99.90;;;;;;5010062;28;20046;-52
2021/12/09 00:21:04;;;;;;;77.38;34.20;;;2.50;99.90;;;;;;5009832;28;20041;-51
2021/12/09 00:23:29;;;;;;;78.22;32.60;;;2.40;99.90;;;;;;5009197;28;20034;-52
2021/12/09 00:25:55;;;;;;;86.30;33.85;;;2.50;99.90;;;;;;5010032;28;20087;-52
2021/12/09 00:28:21;;;;;;;83.15;34.33;;;2.50;99.90;;;;;;5008384;28;20042;-55
2021/12/09 00:30:46;;;;;;;79.75;33.70;;;2.50;99.90;;;;;;5009698;28;20041;-52
2021/12/09 00:33:15;;;;;;;82.35;34.47;;;2.50;99.90;;;;;;5007414;28;20034;-53
2021/12/09 00:35:45;;;;;;;84.40;34.45;;;2.50;99.90;;;;;;5009050;28;20084;-54
2021/12/09 00:38:20;;;;;;;85.45;32.80;;;2.50;99.90;;;;;;5008778;28;20044;-52
2021/12/09 00:40:48;;;;;;;78.20;32.30;;;2.50;99.90;;;;;;5002397;28;20547;-55
2021/12/09 00:43:17;;;;;;;84.75;36.92;;;2.50;99.90;;;;;;5006702;28;20117;-54
2021/12/09 00:45:43;;;;;;;77.80;33.00;;;2.60;99.90;;;;;;5008555;28;20037;-56
2021/12/09 00:48:09;;;;;;;82.93;35.03;;;2.60;99.90;;;;;;5008374;28;20108;-54
2021/12/09 00:50:34;;;;;;;84.03;34.85;;;2.50;99.90;;;;;;5009857;28;20062;-55
2021/12/09 00:53:00;;;;;;;78.68;31.73;;;2.50;99.90;;;;;;5007036;28;20033;-56
2021/12/09 00:55:25;;;;;;;85.22;33.55;;;2.40;99.90;;;;;;5004856;28;20057;-52
2021/12/09 00:57:51;;;;;;;84.82;35.40;;;2.40;99.90;;;;;;5008898;28;20045;-55
2021/12/09 01:00:20;;;;;;;90.05;34.35;;;2.30;99.90;;;;;;5010349;28;20048;-56
2021/12/09 01:02:46;;;;;;;84.05;34.03;;;2.30;99.90;;;;;;5008345;28;20034;-54
2021/12/09 01:05:13;;;;;;;86.88;34.80;;;2.30;99.90;;;;;;5010508;28;20080;-54
2021/12/09 01:07:40;;;;;;;91.32;35.00;;;2.40;99.90;;;;;;5009708;28;20036;-56
2021/12/09 01:10:09;;;;;;;77.38;31.63;;;2.30;99.90;;;;;;5010095;28;20490;-57
2021/12/09 01:12:35;;;;;;;85.18;35.03;;;2.40;99.90;;;;;;5008061;28;20467;-56
2021/12/09 01:15:00;;;;;;;81.97;33.72;;;2.30;99.90;;;;;;5009749;28;20101;-52
2021/12/09 01:17:26;;;;;;;85.70;34.33;;;2.30;99.90;;;;;;5009385;28;20026;-56
2021/12/09 01:19:53;;;;;;;81.57;34.30;;;2.40;99.90;;;;;;5009573;28;20029;-56
2021/12/09 01:22:20;;;;;;;86.75;33.15;;;2.40;99.90;;;;;;5007699;28;20503;-53
2021/12/09 01:24:46;;;;;;;83.82;36.15;;;2.30;99.90;;;;;;5009231;28;20029;-55
2021/12/09 01:27:12;;;;;;;83.60;34.17;;;2.30;99.90;;;;;;5007443;28;20100;-56
2021/12/09 01:29:41;;;;;;;84.63;35.30;;;2.30;99.90;;;;;;5010149;28;20037;-53
2021/12/09 01:32:10;;;;;;;94.47;37.90;;;2.30;99.90;;;;;;5008694;28;20109;-55
2021/12/09 01:34:37;;;;;;;88.07;35.22;;;2.30;99.90;;;;;;5001634;28;20030;-57
2021/12/09 01:37:05;;;;;;;89.82;37.17;;;2.30;99.90;;;;;;5008793;28;20041;-55
2021/12/09 01:39:31;;;;;;;88.50;35.67;;;2.30;99.90;;;;;;5008535;28;20401;-55
2021/12/09 01:41:58;;;;;;;93.00;37.45;;;2.30;99.90;;;;;;5008268;28;20038;-55
2021/12/09 01:44:25;;;;;;;93.05;37.05;;;2.30;99.90;;;;;;5008701;28;20033;-53
2021/12/09 01:46:51;;;;;;;84.53;34.35;;;2.30;99.90;;;;;;5007649;28;20030;-55
2021/12/09 01:49:18;;;;;;;95.07;37.47;;;2.30;99.90;;;;;;5009814;28;20109;-56
2021/12/09 01:51:45;;;;;;;98.45;38.38;;;2.20;99.90;;;;;;5008238;28;20040;-56
2021/12/09 01:54:11;;;;;;;95.22;38.03;;;2.30;99.90;;;;;;5009469;28;20022;-56
2021/12/09 01:56:37;;;;;;;88.65;35.25;;;2.30;99.90;;;;;;5009306;28;20109;-55
2021/12/09 01:59:05;;;;;;;99.30;38.63;;;2.30;99.90;;;;;;5009170;28;20113;-55
2021/12/09 02:01:31;;;;;;;89.20;34.35;;;2.30;99.90;;;;;;5008694;28;20054;-55
2021/12/09 02:03:57;;;;;;;103.90;38.58;;;2.30;99.90;;;;;;5008839;28;20511;-57
2021/12/09 02:06:24;;;;;;;93.88;38.20;;;2.20;99.90;;;;;;5009723;28;20045;-56
2021/12/09 02:08:51;;;;;;;96.72;37.70;;;2.20;99.90;;;;;;5007210;28;20034;-55
2021/12/09 02:11:18;;;;;;;94.20;39.47;;;2.20;99.90;;;;;;5009383;28;20048;-55
2021/12/09 02:13:44;;;;;;;95.07;39.25;;;2.20;99.90;;;;;;5006787;28;20037;-54
2021/12/09 02:16:10;;;;;;;107.10;40.05;;;2.20;99.90;;;;;;5009665;28;20130;-53
2021/12/09 02:18:37;;;;;;;97.82;38.97;;;2.20;99.90;;;;;;4995439;28;20566;-55
2021/12/09 02:21:13;;;;;;;110.43;40.10;;;2.20;99.90;;;;;;5009070;28;20076;-56
2021/12/09 02:23:43;;;;;;;97.68;38.67;;;2.10;99.90;;;;;;4994089;28;20487;-53
2021/12/09 02:26:10;;;;;;;109.03;38.63;;;2.20;99.90;;;;;;5012613;28;20042;-57
2021/12/09 02:28:36;;;;;;;106.55;39.22;;;2.20;99.90;;;;;;5012220;28;20030;-55
2021/12/09 02:31:02;;;;;;;105.72;38.90;;;2.20;99.90;;;;;;5012690;28;20144;-56
2021/12/09 02:33:27;;;;;;;98.18;37.72;;;2.20;99.90;;;;;;5010084;28;20033;-54
2021/12/09 02:35:53;;;;;;;105.95;39.55;;;2.20;99.90;;;;;;5012355;28;20363;-56
2021/12/09 02:38:19;;;;;;;105.38;40.55;;;2.20;99.90;;;;;;5011645;28;20034;-54
2021/12/09 02:40:46;;;;;;;106.97;39.17;;;2.20;99.90;;;;;;4999722;28;20030;-55
2021/12/09 02:43:13;;;;;;;101.55;37.92;;;2.20;99.90;;;;;;5003584;28;20096;-56
2021/12/09 02:45:41;;;;;;;106.38;39.83;;;2.20;99.90;;;;;;5012061;28;20034;-55
2021/12/09 02:48:07;;;;;;;109.68;39.78;;;2.10;99.90;;;;;;5012499;28;20069;-58
2021/12/09 02:50:34;;;;;;;105.68;39.58;;;2.20;99.90;;;;;;5010986;28;20030;-57
2021/12/09 02:52:59;;;;;;;106.45;40.30;;;2.20;99.90;;;;;;5011367;28;20026;-57
2021/12/09 02:55:25;;;;;;;110.18;39.50;;;2.20;99.90;;;;;;5003766;28;20172;-57
2021/12/09 02:57:52;;;;;;;113.47;41.33;;;2.20;99.90;;;;;;5012033;28;20066;-55
2021/12/09 03:00:20;;;;;;;109.40;40.67;;;2.20;99.90;;;;;;5012074;28;20045;-54
2021/12/09 03:02:47;;;;;;;108.03;42.58;;;2.20;99.90;;;;;;5011457;28;20033;-55
2021/12/09 03:05:13;;;;;;;109.95;40.70;;;2.20;99.90;;;;;;5011609;28;20076;-56
2021/12/09 03:07:41;;;;;;;103.95;39.97;;;2.20;99.90;;;;;;5012171;28;20018;-57
2021/12/09 03:10:20;;;;;;;105.72;42.42;;;2.20;99.90;;;;;;5012047;28;20030;-55
2021/12/09 03:12:50;;;;;;;110.80;39.67;;;2.30;99.90;;;;;;4991390;28;20031;-56
2021/12/09 03:15:16;;;;;;;105.65;40.83;;;2.30;99.90;;;;;;5009680;28;20740;-55
2021/12/09 03:17:43;;;;;;;107.15;41.50;;;2.30;99.90;;;;;;5011672;28;20134;-54
2021/12/09 03:20:12;;;;;;;102.60;40.35;;;2.20;99.90;;;;;;5011474;28;20034;-54
2021/12/09 03:22:38;;;;;;;105.38;39.55;;;2.20;99.90;;;;;;4992077;28;20026;-53
2021/12/09 03:25:07;;;;;;;102.05;41.08;;;2.20;99.90;;;;;;5009424;28;20468;-55
2021/12/09 03:27:33;;;;;;;110.43;41.47;;;2.10;99.90;;;;;;5012324;28;20034;-56
2021/12/09 03:29:59;;;;;;;120.10;41.95;;;2.20;99.90;;;;;;5010616;28;20408;-54
2021/12/09 03:32:25;;;;;;;105.57;41.42;;;2.20;99.90;;;;;;5011480;28;20498;-54
2021/12/09 03:34:51;;;;;;;113.47;42.85;;;2.20;99.90;;;;;;5010170;28;20100;-56
2021/12/09 03:37:20;;;;;;;105.30;40.35;;;2.10;99.90;;;;;;5011708;28;20495;-54
2021/12/09 03:39:47;;;;;;;105.85;40.33;;;2.10;99.90;;;;;;5009659;28;20041;-53
2021/12/09 03:42:16;;;;;;;114.05;41.40;;;2.10;99.90;;;;;;5009955;28;20389;-55
2021/12/09 03:44:43;;;;;;;104.32;39.53;;;2.10;99.90;;;;;;5010057;28;20030;-54
2021/12/09 03:47:12;;;;;;;115.75;43.05;;;2.10;99.90;;;;;;5011494;28;20066;-54
2021/12/09 03:49:38;;;;;;;105.57;41.70;;;2.10;99.90;;;;;;5010504;28;20098;-52
2021/12/09 03:52:05;;;;;;;114.00;42.88;;;2.10;99.90;;;;;;5010143;28;20117;-54
2021/12/09 03:54:31;;;;;;;111.00;41.63;;;2.10;99.90;;;;;;5011271;28;20026;-56
2021/12/09 03:56:56;;;;;;;116.88;40.65;;;2.10;99.90;;;;;;5010183;28;20030;-52
2021/12/09 03:59:22;;;;;;;114.05;41.88;;;2.10;99.90;;;;;;5011255;28;20121;-54
2021/12/09 04:01:48;;;;;;;118.65;40.88;;;2.20;99.90;;;;;;5009489;28;20026;-50
2021/12/09 04:04:15;;;;;;;105.60;40.42;;;2.20;99.90;;;;;;5011432;28;20128;-55
2021/12/09 04:06:41;;;;;;;107.18;41.15;;;2.20;99.90;;;;;;5010697;28;20034;-57
2021/12/09 04:09:09;;;;;;;111.05;41.55;;;2.20;99.90;;;;;;5011033;28;20068;-52
2021/12/09 04:11:35;;;;;;;114.05;42.75;;;2.20;99.90;;;;;;5011047;28;20041;-54
2021/12/09 04:14:01;;;;;;;119.07;43.90;;;2.10;99.90;;;;;;5008326;28;20064;-53
2021/12/09 04:16:27;;;;;;;114.80;41.13;;;2.10;99.90;;;;;;5011037;28;20156;-55
2021/12/09 04:18:52;;;;;;;117.18;42.92;;;2.20;99.90;;;;;;5009711;28;20030;-54
2021/12/09 04:21:18;;;;;;;112.15;42.20;;;2.20;99.90;;;;;;5011039;28;20029;-54
2021/12/09 04:23:44;;;;;;;116.95;41.53;;;2.10;99.90;;;;;;5009140;28;20091;-53
2021/12/09 04:26:09;;;;;;;118.03;44.05;;;2.10;99.90;;;;;;5010861;28;20496;-53
2021/12/09 04:28:36;;;;;;;121.57;42.63;;;2.10;99.90;;;;;;5009954;28;20504;-54
2021/12/09 04:31:02;;;;;;;126.72;44.97;;;2.10;99.90;;;;;;5010711;28;20038;-51
2021/12/09 04:33:29;;;;;;;112.82;39.80;;;2.10;99.90;;;;;;5008945;28;20037;-55
2021/12/09 04:35:56;;;;;;;122.40;42.30;;;2.10;99.90;;;;;;5009071;28;20113;-51
2021/12/09 04:38:22;;;;;;;113.88;41.45;;;2.10;99.90;;;;;;5009824;28;20450;-52
2021/12/09 04:40:48;;;;;;;126.40;42.50;;;2.10;99.90;;;;;;5010269;28;20041;-52
2021/12/09 04:43:13;;;;;;;110.18;41.13;;;2.10;99.90;;;;;;5009259;28;20392;-54
2021/12/09 04:45:40;;;;;;;117.07;41.97;;;2.10;99.90;;;;;;5010539;28;20388;-52
2021/12/09 04:48:07;;;;;;;118.50;42.83;;;2.10;99.90;;;;;;5008805;28;20488;-53
2021/12/09 04:50:33;;;;;;;117.93;42.63;;;2.10;99.90;;;;;;5010957;28;20026;-54
2021/12/09 04:52:59;;;;;;;123.72;44.22;;;2.00;99.90;;;;;;5008559;28;20034;-52
2021/12/09 04:55:25;;;;;;;120.95;45.83;;;2.00;99.90;;;;;;5006337;28;20033;-50
2021/12/09 04:57:50;;;;;;;113.45;42.13;;;2.00;99.90;;;;;;5007975;28;20471;-51
2021/12/09 05:00:22;;;;;;;120.65;43.53;;;2.00;99.90;;;;;;5010597;28;20029;-56
2021/12/09 05:03:07;;;;;;;121.07;42.70;;;2.00;99.90;;;;;;5008560;28;20034;-52
2021/12/09 05:05:37;;;;;;;112.97;41.92;;;2.00;99.90;;;;;;5009080;28;20065;-50
2021/12/09 05:08:05;;;;;;;116.95;43.10;;;2.00;99.90;;;;;;5009260;28;20056;-51
2021/12/09 05:10:49;;;;;;;116.90;44.47;;;2.00;99.90;;;;;;5009264;28;20495;-50
2021/12/09 05:13:15;;;;;;;126.18;43.80;;;2.10;99.90;;;;;;5009568;28;20034;-51
2021/12/09 05:15:41;;;;;;;115.90;41.33;;;2.10;99.90;;;;;;5007060;28;20030;-54
2021/12/09 05:18:07;;;;;;;124.53;43.90;;;2.10;99.90;;;;;;5008763;28;20109;-52
2021/12/09 05:20:32;;;;;;;114.97;44.20;;;2.00;99.90;;;;;;5007701;28;20038;-52
2021/12/09 05:22:58;;;;;;;116.82;42.05;;;2.00;99.90;;;;;;5006314;28;20032;-52
2021/12/09 05:25:24;;;;;;;124.60;44.00;;;2.00;99.90;;;;;;5009121;28;20076;-50
2021/12/09 05:27:49;;;;;;;117.97;44.28;;;1.90;99.90;;;;;;5009476;28;20503;-50
2021/12/09 05:30:23;;;;;;;117.20;42.72;;;1.90;99.90;;;;;;5010060;28;20022;-52
2021/12/09 05:32:48;;;;;;;122.68;44.33;;;2.00;99.90;;;;;;5008346;28;20080;-53
2021/12/09 05:35:15;;;;;;;105.00;39.10;;;1.90;99.90;;;;;;5007607;28;20045;-50
2021/12/09 05:37:41;;;;;;;115.10;40.92;;;2.00;99.90;;;;;;5009784;28;20038;-53
2021/12/09 05:40:07;;;;;;;112.50;41.70;;;2.00;99.90;;;;;;5009029;28;20029;-55
2021/12/09 05:42:33;;;;;;;118.50;43.85;;;2.00;99.90;;;;;;5009264;28;20038;-53
2021/12/09 05:44:59;;;;;;;116.22;42.55;;;2.00;99.90;;;;;;5007518;28;20036;-56
2021/12/09 05:47:25;;;;;;;114.88;42.75;;;2.10;99.90;;;;;;5008789;28;20049;-55
2021/12/09 05:49:53;;;;;;;109.03;40.40;;;2.00;99.90;;;;;;5009395;28;20030;-54
2021/12/09 05:52:18;;;;;;;113.13;40.78;;;1.90;99.90;;;;;;5007101;28;20040;-55
2021/12/09 05:54:45;;;;;;;119.25;37.95;;;1.90;99.90;;;;;;5009482;28;20238;-56
2021/12/09 05:57:11;;;;;;;124.65;43.65;;;1.90;99.90;;;;;;5009075;28;20384;-54
2021/12/09 05:59:40;;;;;;;119.30;43.78;;;1.90;99.90;;;;;;4997887;28;20129;-55
2021/12/09 06:02:07;;;;;;;127.15;44.25;;;1.90;99.90;;;;;;5012517;28;20088;-54
2021/12/09 06:04:33;;;;;;;116.97;43.13;;;1.90;99.90;;;;;;5012381;28;20517;-53
2021/12/09 06:06:58;;;;;;;121.00;43.92;;;1.90;99.90;;;;;;5012411;28;20117;-53
2021/12/09 06:09:24;;;;;;;127.53;45.85;;;1.90;99.90;;;;;;5013743;28;20431;-51
2021/12/09 06:11:50;;;;;;;117.95;41.78;;;1.90;99.90;;;;;;5011907;28;20113;-53
2021/12/09 06:14:16;;;;;;;114.70;41.72;;;1.90;99.90;;;;;;5013593;28;20154;-56
2021/12/09 06:16:42;;;;;;;120.43;43.80;;;1.90;99.90;;;;;;5007347;28;20168;-51
2021/12/09 06:19:08;;;;;;;108.57;40.22;;;1.90;99.90;;;;;;5013510;28;20523;-53
2021/12/09 06:21:33;;;;;;;116.60;43.08;;;1.90;99.90;;;;;;5012274;28;20029;-54
2021/12/09 06:24:00;;;;;;;110.88;41.63;;;1.90;99.90;;;;;;5012680;28;20156;-53
2021/12/09 06:26:27;;;;;;;110.22;40.95;;;1.90;99.90;;;;;;5011770;28;20434;-51
2021/12/09 06:28:53;;;;;;;114.40;41.00;;;1.90;99.90;;;;;;5012792;28;20377;-55
2021/12/09 06:31:20;;;;;;;116.63;43.05;;;1.90;99.90;;;;;;5012193;28;20045;-56
2021/12/09 06:33:46;;;;;;;121.28;43.10;;;1.90;99.90;;;;;;5011940;28;20368;-56
2021/12/09 06:36:12;;;;;;;115.60;40.55;;;1.90;99.90;;;;;;5010755;28;20120;-53
2021/12/09 06:38:37;;;;;;;119.85;42.50;;;1.90;99.90;;;;;;5013063;28;20116;-53
2021/12/09 06:41:04;;;;;;;121.15;43.00;;;1.80;99.90;;;;;;5008339;28;20092;-55
2021/12/09 06:43:30;;;;;;;108.32;42.15;;;1.80;99.90;;;;;;5011969;28;20466;-53
2021/12/09 06:45:57;;;;;;;119.28;44.30;;;1.90;99.90;;;;;;5012353;28;20034;-52
2021/12/09 06:48:23;;;;;;;117.28;43.38;;;1.80;99.90;;;;;;5012918;28;20387;-56
2021/12/09 06:50:49;;;;;;;114.20;42.53;;;1.80;99.90;;;;;;5007109;28;20052;-56
2021/12/09 06:53:15;;;;;;;115.97;44.20;;;1.90;99.90;;;;;;5011886;28;20025;-55
2021/12/09 06:55:42;;;;;;;117.40;41.92;;;1.90;99.90;;;;;;5009890;28;20422;-56
2021/12/09 06:58:08;;;;;;;119.20;43.17;;;1.90;99.90;;;;;;5010544;28;20283;-53
2021/12/09 07:00:40;;;;;;;124.18;44.47;;;1.90;99.90;;;;;;5011297;28;20030;-53
2021/12/09 07:03:06;;;;;;;109.60;42.17;;;1.90;99.90;;;;;;5011955;28;20053;-54
2021/12/09 07:05:31;;;;;;;116.70;41.95;;;1.90;99.90;;;;;;5011903;28;20504;-53
2021/12/09 07:07:57;;;;;;;115.63;42.83;;;1.90;99.90;;;;;;5012267;28;20084;-56
2021/12/09 07:10:23;;;;;;;120.05;44.83;;;1.90;99.90;;;;;;5010672;28;20030;-52
2021/12/09 07:12:49;;;;;;;109.40;40.70;;;1.90;99.90;;;;;;5009816;28;20082;-55
2021/12/09 07:15:16;;;;;;;120.88;43.65;;;1.90;99.90;;;;;;5012193;28;20111;-55
2021/12/09 07:17:41;;;;;;;112.40;41.83;;;1.90;99.90;;;;;;5010892;28;20044;-56
2021/12/09 07:20:13;;;;;;;117.80;44.55;;;1.80;99.90;;;;;;5011983;28;20495;-53
2021/12/09 07:22:39;;;;;;;117.88;43.47;;;1.90;99.90;;;;;;4991702;28;20031;-55
2021/12/09 07:25:05;;;;;;;123.55;46.13;;;1.90;99.90;;;;;;5011551;28;20034;-54
2021/12/09 07:27:31;;;;;;;115.40;43.72;;;1.90;99.90;;;;;;5012160;28;20087;-51
2021/12/09 07:29:56;;;;;;;116.50;44.58;;;2.00;99.90;;;;;;5010836;28;20038;-51
2021/12/09 07:32:22;;;;;;;112.20;43.80;;;2.00;99.90;;;;;;5009168;28;20443;-51
2021/12/09 07:34:47;;;;;;;126.30;44.85;;;2.00;99.90;;;;;;5010998;28;20122;-56
2021/12/09 07:37:13;;;;;;;121.95;44.92;;;2.00;99.90;;;;;;5011088;28;20056;-54
2021/12/09 07:39:39;;;;;;;121.35;43.97;;;1.90;99.90;;;;;;5012057;28;20033;-51
2021/12/09 07:42:05;;;;;;;114.65;42.80;;;1.90;99.90;;;;;;5010188;28;20133;-51
2021/12/09 07:44:31;;;;;;;118.88;44.88;;;1.90;99.90;;;;;;5011809;28;20036;-55
2021/12/09 07:46:58;;;;;;;119.07;45.22;;;2.00;99.90;;;;;;5010678;28;20084;-55
2021/12/09 07:49:25;;;;;;;123.05;42.97;;;1.90;99.90;;;;;;5011610;28;20035;-58
2021/12/09 07:51:52;;;;;;;121.70;43.58;;;1.90;99.90;;;;;;5010072;28;20143;-54
2021/12/09 07:54:18;;;;;;;122.57;44.13;;;1.90;99.90;;;;;;5011071;28;20403;-51
2021/12/09 07:56:44;;;;;;;116.75;43.75;;;1.90;99.90;;;;;;5010659;28;20026;-51
2021/12/09 07:59:11;;;;;;;111.78;43.40;;;1.90;99.90;;;;;;5011612;28;20448;-57
2021/12/09 08:01:40;;;;;;;122.20;44.25;;;1.90;99.90;;;;;;5008472;28;20026;-57
2021/12/09 08:04:07;;;;;;;131.18;45.10;;;1.90;99.90;;;;;;5004730;28;20084;-50
2021/12/09 08:06:36;;;;;;;120.65;44.55;;;1.90;99.90;;;;;;5009583;28;20118;-53
2021/12/09 08:09:04;;;;;;;129.57;45.45;;;2.00;99.90;;;;;;5010760;28;20673;-51
2021/12/09 08:11:30;;;;;;;123.13;44.75;;;2.00;99.90;;;;;;5009078;28;20041;-52
2021/12/09 08:13:56;;;;;;;117.47;43.53;;;2.00;99.90;;;;;;5008599;28;20033;-57
2021/12/09 08:16:23;;;;;;;115.50;43.42;;;2.00;99.90;;;;;;5001136;28;20073;-59
2021/12/09 08:18:55;;;;;;;122.22;46.20;;;2.00;99.90;;;;;;5005083;28;20029;-58
2021/12/09 08:21:25;;;;;;;117.78;43.42;;;2.00;99.90;;;;;;5008640;28;20026;-59
2021/12/09 08:23:53;;;;;;;116.80;43.50;;;2.00;99.90;;;;;;5008852;28;20160;-59
2021/12/09 08:26:20;;;;;;;116.65;44.20;;;2.00;99.90;;;;;;5010651;28;20388;-54
2021/12/09 08:28:47;;;;;;;120.25;45.67;;;2.00;99.90;;;;;;5008317;28;20037;-60
2021/12/09 08:31:13;;;;;;;114.97;41.72;;;2.00;99.90;;;;;;5010510;28;20073;-58
2021/12/09 08:33:39;;;;;;;138.95;48.65;;;2.00;99.90;;;;;;5007730;28;20120;-58
2021/12/09 08:36:04;;;;;;;124.47;44.63;;;2.00;99.90;;;;;;5010128;28;20022;-55
2021/12/09 08:38:30;;;;;;;121.80;44.75;;;2.00;99.90;;;;;;5009734;28;20557;-57
2021/12/09 08:40:56;;;;;;;123.80;46.83;;;2.00;99.90;;;;;;5009848;28;20540;-57
2021/12/09 08:43:23;;;;;;;127.05;45.42;;;2.00;99.90;;;;;;5008781;28;20057;-57
2021/12/09 08:45:51;;;;;;;124.35;46.00;;;2.00;99.90;;;;;;5009826;28;20030;-57
2021/12/09 08:48:16;;;;;;;121.82;45.17;;;2.00;99.90;;;;;;5009599;28;20033;-57
2021/12/09 08:50:44;;;;;;;115.00;42.40;;;2.10;99.90;;;;;;5007821;28;20522;-56
2021/12/09 08:53:13;;;;;;;122.60;45.63;;;2.00;99.90;;;;;;5008400;28;20034;-57
2021/12/09 08:55:40;;;;;;;124.10;45.50;;;2.00;99.90;;;;;;5002414;28;20029;-58
2021/12/09 08:58:08;;;;;;;126.15;45.13;;;2.10;99.90;;;;;;5008265;28;20415;-56
2021/12/09 09:00:35;;;;;;;131.05;47.78;;;2.10;99.90;;;;;;5006126;28;20030;-56
2021/12/09 09:03:02;;;;;;;132.23;46.78;;;2.10;99.90;;;;;;5008695;28;20770;-56
2021/12/09 09:05:28;;;;;;;128.50;46.17;;;2.10;99.90;;;;;;5004244;28;20121;-57
2021/12/09 09:07:55;;;;;;;133.23;46.60;;;2.10;99.90;;;;;;5006103;28;20183;-56
2021/12/09 09:10:24;;;;;;;130.98;45.38;;;2.10;99.90;;;;;;5009308;28;20123;-56
2021/12/09 09:12:50;;;;;;;128.85;45.40;;;2.00;99.90;;;;;;5006939;28;20136;-56
2021/12/09 09:15:19;;;;;;;132.63;47.72;;;2.00;99.90;;;;;;5010209;28;20092;-59
2021/12/09 09:17:46;;;;;;;134.32;49.80;;;2.00;99.90;;;;;;5009034;28;20054;-57
2021/12/09 09:20:14;;;;;;;127.35;44.92;;;2.10;99.90;;;;;;5007830;28;20104;-59
2021/12/09 09:22:41;;;;;;;126.05;48.65;;;2.10;99.90;;;;;;5009272;28;20061;-58
2021/12/09 09:25:11;;;;;;;129.02;46.58;;;2.10;99.90;;;;;;5008292;28;20037;-58
2021/12/09 09:27:37;;;;;;;141.27;48.75;;;2.10;99.90;;;;;;5001808;28;20025;-57
2021/12/09 09:30:07;;;;;;;128.30;46.00;;;2.10;99.90;;;;;;5009426;28;20088;-56
2021/12/09 09:32:33;;;;;;;132.32;45.88;;;2.10;99.90;;;;;;5008724;28;20381;-57
2021/12/09 09:34:59;;;;;;;128.18;46.75;;;2.20;99.90;;;;;;5006700;28;20030;-55
2021/12/09 09:37:25;;;;;;;130.52;47.25;;;2.20;99.90;;;;;;5004257;28;20096;-56
2021/12/09 09:39:51;;;;;;;127.75;46.17;;;2.20;99.90;;;;;;5009721;28;20030;-55
2021/12/09 09:42:35;;;;;;;121.05;44.45;;;2.20;99.90;;;;;;5009520;28;20069;-56
2021/12/09 09:45:01;;;;;;;122.10;45.85;;;2.20;99.90;;;;;;5005052;28;20526;-59
2021/12/09 09:47:27;;;;;;;137.98;47.13;;;2.20;99.90;;;;;;5007678;28;20018;-56
2021/12/09 09:49:55;;;;;;;122.78;44.20;;;2.30;99.90;;;;;;5004492;28;20026;-56
2021/12/09 09:52:21;;;;;;;119.88;42.72;;;2.20;99.90;;;;;;5006765;28;20412;-54
2021/12/09 09:54:48;;;;;;;136.40;49.47;;;2.20;99.90;;;;;;5006306;28;20380;-54
2021/12/09 09:57:14;;;;;;;137.07;44.78;;;2.20;99.90;;;;;;5014814;28;20033;-55
2021/12/09 09:59:41;;;;;;;135.07;48.70;;;2.20;99.90;;;;;;5009276;28;20030;-56
2021/12/09 10:02:08;;;;;;;133.93;46.05;;;2.20;99.90;;;;;;5008384;28;20514;-54
2021/12/09 10:07:05;;;;;;;128.80;46.53;;;2.20;99.90;;;;;;4998120;28;20117;-55
2021/12/09 10:09:31;;;;;;;127.78;45.40;;;2.20;99.90;;;;;;5013965;28;20624;-57
2021/12/09 10:11:57;;;;;;;135.02;48.03;;;2.30;99.90;;;;;;5006272;28;20034;-57
2021/12/09 10:14:25;;;;;;;137.73;48.33;;;2.30;99.90;;;;;;5007843;28;20040;-56
2021/12/09 10:17:11;;;;;;;131.32;45.70;;;2.30;99.90;;;;;;5008548;28;20076;-57
2021/12/09 10:19:52;;;;;;;133.80;48.63;;;2.30;99.90;;;;;;5006007;28;20443;-57
2021/12/09 10:22:20;;;;;;;136.88;47.78;;;2.20;99.90;;;;;;5006963;28;20086;-53
2021/12/09 10:24:49;;;;;;;140.77;47.97;;;2.10;99.90;;;;;;5008380;28;20025;-53
2021/12/09 10:27:23;;;;;;;132.50;47.03;;;2.20;99.90;;;;;;5008934;28;20034;-52
2021/12/09 10:29:51;;;;;;;137.55;47.47;;;2.20;99.90;;;;;;5007983;28;20073;-58
2021/12/09 10:32:20;;;;;;;136.95;48.63;;;2.20;99.90;;;;;;5009082;28;20468;-54
2021/12/09 10:34:48;;;;;;;130.50;43.20;;;2.10;99.90;;;;;;5007680;28;20557;-52
2021/12/09 10:37:16;;;;;;;143.82;47.38;;;2.20;99.90;;;;;;5007589;28;20076;-56
2021/12/09 10:39:50;;;;;;;136.32;47.47;;;2.30;99.90;;;;;;5008546;28;20030;-57
2021/12/09 10:42:18;;;;;;;133.27;47.53;;;2.30;99.90;;;;;;5008353;28;20146;-57
2021/12/09 10:44:50;;;;;;;136.07;48.83;;;2.30;99.90;;;;;;5009185;28;20541;-57
2021/12/09 10:47:34;;;;;;;135.50;47.33;;;2.40;99.90;;;;;;5012507;28;20034;-58
2021/12/09 10:50:18;;;;;;;126.88;45.30;;;2.30;99.90;;;;;;5010213;28;20567;-58
2021/12/09 10:52:49;;;;;;;140.77;48.78;;;2.20;99.90;;;;;;5004289;28;20116;-58
2021/12/09 10:55:20;;;;;;;141.63;47.78;;;2.30;99.90;;;;;;5011620;28;20041;-56
2021/12/09 10:57:53;;;;;;;137.98;48.60;;;2.30;99.90;;;;;;5011848;28;20045;-53
2021/12/09 11:00:19;;;;;;;132.98;47.72;;;2.30;99.90;;;;;;5010374;28;20022;-56
2021/12/09 11:03:00;;;;;;;142.23;48.63;;;2.30;99.90;;;;;;5010792;28;20483;-56
2021/12/09 11:05:26;;;;;;;139.30;49.33;;;2.30;99.90;;;;;;5010535;28;20033;-55
2021/12/09 11:07:51;;;;;;;128.43;47.17;;;2.50;99.90;;;;;;5010698;28;20026;-56
2021/12/09 11:10:20;;;;;;;134.18;49.65;;;2.60;99.90;;;;;;5012534;28;20057;-55
2021/12/09 11:12:56;;;;;;;127.55;48.42;;;2.60;99.90;;;;;;5009682;28;20057;-57
2021/12/09 11:15:46;;;;;;;135.43;46.72;;;2.60;99.90;;;;;;5011963;28;20044;-57
2021/12/09 11:18:44;;;;;;;142.50;50.10;;;2.60;99.90;;;;;;5010963;28;20488;-56
2021/12/09 11:21:22;;;;;;;138.55;48.17;;;2.60;99.90;;;;;;5011738;28;20030;-57
2021/12/09 11:23:58;;;;;;;141.40;48.50;;;2.60;99.90;;;;;;5004406;28;20044;-56
2021/12/09 11:26:40;;;;;;;124.55;44.83;;;2.60;99.90;;;;;;5010545;28;20030;-56
2021/12/09 11:29:35;;;;;;;129.48;48.05;;;2.60;99.90;;;;;;5011446;28;20029;-57
2021/12/09 11:32:41;;;;;;;130.68;46.20;;;2.60;99.90;;;;;;5010425;28;20069;-57
2021/12/09 11:35:12;;;;;;;134.57;47.55;;;2.60;99.90;;;;;;5009362;28;20041;-57
2021/12/09 11:37:44;;;;;;;127.22;44.50;;;2.50;99.90;;;;;;4996865;28;20038;-57
2021/12/09 11:40:34;;;;;;;124.50;46.28;;;2.60;99.90;;;;;;5010672;28;20038;-53
2021/12/09 11:43:01;;;;;;;139.50;47.58;;;2.60;99.90;;;;;;5002353;28;20488;-56
2021/12/09 11:45:31;;;;;;;140.98;47.60;;;2.60;99.90;;;;;;5009752;28;20045;-55
2021/12/09 11:47:58;;;;;;;138.77;46.17;;;2.60;99.90;;;;;;5003811;28;20552;-55
2021/12/09 11:50:38;;;;;;;136.05;48.60;;;2.70;99.90;;;;;;4990976;28;20042;-57
2021/12/09 11:53:07;;;;;;;141.57;49.78;;;2.70;99.90;;;;;;4992623;28;20045;-57
2021/12/09 11:55:41;;;;;;;145.65;50.00;;;2.60;99.90;;;;;;5001277;28;20068;-55
2021/12/09 11:58:25;;;;;;;144.02;49.42;;;2.70;99.90;;;;;;5010717;28;20499;-54
2021/12/09 12:07:17;;;;;;;155.07;51.63;;;2.80;99.90;;;;;;5002348;28;20052;-57
2021/12/09 12:42:17;;;;;;;145.18;48.83;;;3.10;99.90;;;;;;4990264;28;20048;-57
2021/12/09 12:51:42;;;;;;;146.13;50.13;;;3.00;99.90;;;;;;4980068;28;20049;-57
2021/12/09 12:54:00;;;;;;;145.45;49.58;;;3.00;99.90;;;;;;4991240;28;20038;-58
2021/12/09 12:56:27;;;;;;;146.90;49.28;;;3.00;99.90;;;;;;4991051;28;20191;-58
2021/12/09 12:59:10;;;;;;;147.80;49.53;;;3.00;99.90;;;;;;4998048;28;20030;-54
2021/12/09 13:01:48;;;;;;;149.32;50.20;;;3.10;99.90;;;;;;4994041;28;20046;-57
2021/12/09 13:04:51;;;;;;;144.38;48.28;;;3.20;99.90;;;;;;4991894;28;20111;-58
2021/12/09 13:10:42;;;;;;;137.20;49.80;;;3.20;99.90;;;;;;4990775;28;21069;-57
2021/12/09 13:16:09;;;;;;;149.60;50.40;;;3.10;99.90;;;;;;4993140;28;20105;-55
2021/12/09 13:19:10;;;;;;;152.25;51.30;;;3.10;99.90;;;;;;4995379;28;20040;-58
2021/12/09 13:21:45;;;;;;;145.25;51.88;;;3.10;99.90;;;;;;4990664;28;20488;-54
2021/12/09 13:24:41;;;;;;;142.65;51.92;;;3.10;99.90;;;;;;4991046;28;20041;-56
2021/12/09 13:27:30;;;;;;;143.65;49.88;;;3.10;99.90;;;;;;4991299;28;20042;-57
2021/12/09 13:30:13;;;;;;;139.38;49.53;;;3.10;99.90;;;;;;4996645;28;20022;-57